createdAt,value
2023-11-27T00:04:05.326Z,12
2023-11-27T00:09:35.448Z,11
2023-11-27T00:15:05.618Z,10
2023-11-27T00:20:35.806Z,9
2023-11-27T00:26:05.966Z,6
2023-11-27T00:31:36.244Z,8
2023-11-27T00:37:06.326Z,7
2023-11-27T00:48:06.665Z,6
2023-11-27T00:59:07.004Z,7
2023-11-27T01:04:37.157Z,5
2023-11-27T01:10:07.354Z,6
2023-11-27T01:15:37.504Z,4
2023-11-27T01:21:07.699Z,7
2023-11-27T01:26:37.845Z,4
2023-11-27T01:32:08.049Z,5
2023-11-27T01:48:38.524Z,6
2023-11-27T01:54:08.714Z,5
2023-11-27T01:59:38.859Z,6
2023-11-27T02:10:39.207Z,7
2023-11-27T02:16:09.400Z,8
2023-11-27T02:21:39.541Z,6
2023-11-27T02:27:09.715Z,8
2023-11-27T02:32:39.881Z,11
2023-11-27T02:38:10.100Z,10
2023-11-27T02:49:10.432Z,12
2023-11-27T03:00:10.733Z,15
2023-11-27T03:11:11.059Z,20
2023-11-27T03:16:41.312Z,17
2023-11-27T03:22:11.454Z,20
2023-11-27T03:27:41.588Z,23
2023-11-27T03:33:11.738Z,22
2023-11-27T03:44:12.385Z,27
2023-11-27T03:49:42.253Z,22
2023-11-27T03:55:12.446Z,27
2023-11-27T04:00:42.591Z,21
2023-11-27T04:06:12.772Z,25
2023-11-27T04:11:44.295Z,22
2023-11-27T04:17:13.264Z,20
2023-11-27T04:22:43.299Z,24
2023-11-27T04:33:43.627Z,23
2023-11-27T04:39:13.793Z,20
2023-11-27T04:44:43.961Z,19
2023-11-27T04:50:14.161Z,28
2023-11-27T04:55:44.291Z,24
2023-11-27T05:01:14.488Z,22
2023-11-27T05:06:44.645Z,23
2023-11-27T05:12:17.834Z,25
2023-11-27T05:17:44.986Z,24
2023-11-27T05:23:15.163Z,25
2023-11-27T05:28:45.319Z,26
2023-11-27T05:34:15.593Z,24
2023-11-27T05:39:45.659Z,21
2023-11-27T05:45:15.834Z,23
2023-11-27T05:50:46.011Z,20
2023-11-27T06:07:16.519Z,18
2023-11-27T06:18:16.886Z,16
2023-11-27T06:23:47.041Z,17
2023-11-27T06:29:17.195Z,16
2023-11-27T06:34:47.375Z,18
2023-11-27T06:40:17.561Z,14
2023-11-27T06:45:47.750Z,16
2023-11-27T06:51:17.897Z,15
2023-11-27T07:07:48.408Z,14
2023-11-27T07:13:18.613Z,15
2023-11-27T07:24:21.023Z,14
2023-11-27T07:29:49.082Z,17
2023-11-27T07:35:19.280Z,14
2023-11-27T07:46:19.724Z,12
2023-11-27T07:57:19.994Z,13
2023-11-27T08:13:50.463Z,11
2023-11-27T08:19:20.638Z,12
2023-11-27T08:24:50.785Z,16
2023-11-27T08:30:20.977Z,8
2023-11-27T08:35:51.123Z,9
2023-11-27T08:41:21.324Z,11
2023-11-27T08:52:21.674Z,12
2023-11-27T08:57:51.885Z,11
2023-11-27T09:08:52.163Z,12
2023-11-27T09:14:22.319Z,9
2023-11-27T09:25:22.687Z,11
2023-11-27T09:30:52.848Z,8
2023-11-27T09:36:23.001Z,9
2023-11-27T09:47:23.377Z,11
2023-11-27T09:52:53.514Z,12
2023-11-27T09:58:23.717Z,10
2023-11-27T10:03:53.877Z,16
2023-11-27T10:09:24.017Z,11
2023-11-27T10:14:54.226Z,14
2023-11-27T10:20:24.363Z,15
2023-11-27T10:25:54.538Z,12
2023-11-27T10:31:24.792Z,11
2023-11-27T10:36:55.560Z,13
2023-11-27T10:42:25.056Z,11
2023-11-27T10:53:25.397Z,9
2023-11-27T10:58:55.570Z,10
2023-11-27T11:04:25.776Z,9
2023-11-27T11:09:55.920Z,8
2023-11-27T11:15:26.092Z,12
2023-11-27T11:20:56.261Z,10
2023-11-27T11:42:56.927Z,12
2023-11-27T11:53:57.280Z,10
2023-11-27T11:59:27.439Z,9
2023-11-27T12:04:57.664Z,15
2023-11-27T12:10:27.803Z,9
2023-11-27T12:15:58.050Z,11
2023-11-27T12:21:28.118Z,9
2023-11-27T12:26:58.285Z,8
2023-11-27T12:32:28.589Z,7
2023-11-27T12:37:58.631Z,8
2023-11-27T12:43:28.848Z,10
2023-11-27T12:54:29.426Z,13
2023-11-27T12:59:59.333Z,7
2023-11-27T13:05:29.492Z,8
2023-11-27T13:10:59.687Z,9
2023-11-27T13:22:00.034Z,10
2023-11-27T13:33:00.586Z,9
2023-11-27T13:38:30.534Z,8
2023-11-27T13:44:00.719Z,13
2023-11-27T13:49:30.944Z,9
2023-11-27T13:55:01.170Z,8
2023-11-27T14:00:31.221Z,9
2023-11-27T14:06:01.384Z,7
2023-11-27T14:17:03.142Z,6
2023-11-27T14:22:31.943Z,7
2023-11-27T14:28:02.052Z,6
2023-11-27T14:33:32.221Z,7
2023-11-27T14:44:32.569Z,9
2023-11-27T14:50:07.771Z,8
2023-11-27T15:01:03.192Z,6
2023-11-27T15:06:33.247Z,8
2023-11-27T15:12:03.413Z,7
2023-11-27T15:17:33.616Z,10
2023-11-27T15:23:03.755Z,7
2023-11-27T15:34:04.097Z,9
2023-11-27T15:39:34.449Z,8
2023-11-27T15:45:04.441Z,9
2023-11-27T15:50:34.609Z,8
2023-11-27T15:56:04.781Z,10
2023-11-27T16:07:05.118Z,11
2023-11-27T16:12:35.300Z,10
2023-11-27T16:18:05.543Z,9
2023-11-27T16:23:35.647Z,10
2023-11-27T16:34:35.998Z,9
2023-11-27T16:40:06.140Z,10
2023-11-27T16:45:36.327Z,12
2023-11-27T16:51:06.493Z,14
2023-11-27T16:56:36.656Z,16
2023-11-27T17:02:06.981Z,19
2023-11-27T17:07:37.029Z,20
2023-11-27T17:13:07.193Z,15
2023-11-27T17:24:07.540Z,13
2023-11-27T17:29:37.697Z,14
2023-11-27T17:35:07.870Z,15
2023-11-27T17:46:08.275Z,13
2023-11-27T17:57:08.553Z,15
2023-11-27T18:02:38.782Z,12
2023-11-27T18:08:08.939Z,16
2023-11-27T18:13:39.083Z,15
2023-11-27T18:19:09.250Z,20
2023-11-27T18:24:39.422Z,19
2023-11-27T18:30:09.695Z,29
2023-11-27T18:35:39.750Z,12
2023-11-27T18:41:09.919Z,13
2023-11-27T18:52:10.284Z,15
2023-11-27T18:57:40.443Z,16
2023-11-27T19:03:10.742Z,13
2023-11-27T19:08:40.790Z,12
2023-11-27T19:14:10.962Z,16
2023-11-27T19:19:41.146Z,15
2023-11-27T19:25:11.308Z,16
2023-11-27T19:30:41.485Z,14
2023-11-27T19:36:11.772Z,15
2023-11-27T19:41:41.837Z,10
2023-11-27T19:47:12.042Z,12
2023-11-27T19:52:42.200Z,11
2023-11-27T20:03:42.589Z,12
2023-11-27T20:14:42.852Z,15
2023-11-27T20:20:13.055Z,14
2023-11-27T20:25:43.226Z,11
2023-11-27T20:36:43.568Z,8
2023-11-27T20:47:43.954Z,6
2023-11-27T20:53:14.064Z,4
2023-11-27T21:04:14.420Z,3
2023-11-27T21:09:44.578Z,4
2023-11-27T21:37:15.457Z,6
2023-11-27T21:42:45.598Z,5
2023-11-27T21:48:15.795Z,6
2023-11-27T21:53:45.943Z,7
2023-11-27T22:04:46.414Z,9
2023-11-27T22:10:16.482Z,11
2023-11-27T22:15:46.661Z,9
2023-11-27T22:26:46.978Z,10
2023-11-27T22:32:17.205Z,11
2023-11-27T22:37:47.323Z,10
2023-11-27T22:43:17.488Z,9
2023-11-27T22:48:47.673Z,14
2023-11-27T22:54:17.851Z,10
2023-11-27T22:59:47.986Z,12
2023-11-27T23:10:48.344Z,11
2023-11-27T23:16:18.530Z,10
2023-11-27T23:21:48.681Z,13
2023-11-27T23:27:18.856Z,12
2023-11-27T23:32:49.049Z,11
2023-11-27T23:43:49.394Z,14
2023-11-27T23:49:19.549Z,12
